sensor_id;sensor_type;location;lat;lon;timestamp;P1;durP1;ratioP1;P2;durP2;ratioP2
18875;SDS011;9570;50.854;13.778;2023-02-16T00:01:35;6.25;;;3.88;;
18875;SDS011;9570;50.854;13.778;2023-02-16T00:04:01;6.50;;;4.63;;
18875;SDS011;9570;50.854;13.778;2023-02-16T00:06:32;7.18;;;4.47;;
18875;SDS011;9570;50.854;13.778;2023-02-16T00:08:57;5.57;;;3.50;;
18875;SDS011;9570;50.854;13.778;2023-02-16T00:11:25;5.70;;;3.60;;
18875;SDS011;9570;50.854;13.778;2023-02-16T00:14:13;10.13;;;4.22;;
18875;SDS011;9570;50.854;13.778;2023-02-16T00:16:40;5.40;;;3.92;;
18875;SDS011;9570;50.854;13.778;2023-02-16T00:19:39;7.00;;;4.40;;
18875;SDS011;9570;50.854;13.778;2023-02-16T00:22:00;5.60;;;3.55;;
18875;SDS011;9570;50.854;13.778;2023-02-16T00:24:27;5.53;;;3.67;;
18875;SDS011;9570;50.854;13.778;2023-02-16T00:26:53;5.90;;;3.47;;
18875;SDS011;9570;50.854;13.778;2023-02-16T00:29:32;4.40;;;3.40;;
18875;SDS011;9570;50.854;13.778;2023-02-16T00:32:01;4.65;;;3.28;;
18875;SDS011;9570;50.854;13.778;2023-02-16T00:36:56;6.95;;;3.70;;
18875;SDS011;9570;50.854;13.778;2023-02-16T00:39:22;4.00;;;2.80;;
18875;SDS011;9570;50.854;13.778;2023-02-16T00:41:50;5.10;;;3.25;;
18875;SDS011;9570;50.854;13.778;2023-02-16T00:44:38;5.65;;;3.35;;
18875;SDS011;9570;50.854;13.778;2023-02-16T00:47:13;4.38;;;2.88;;
18875;SDS011;9570;50.854;13.778;2023-02-16T00:49:46;3.63;;;2.75;;
18875;SDS011;9570;50.854;13.778;2023-02-16T00:52:25;4.28;;;2.95;;
18875;SDS011;9570;50.854;13.778;2023-02-16T00:54:55;4.30;;;2.90;;
18875;SDS011;9570;50.854;13.778;2023-02-16T00:57:21;7.03;;;2.70;;
18875;SDS011;9570;50.854;13.778;2023-02-16T00:59:48;3.58;;;2.40;;
18875;SDS011;9570;50.854;13.778;2023-02-16T01:02:22;3.50;;;2.10;;
18875;SDS011;9570;50.854;13.778;2023-02-16T01:04:47;2.97;;;2.37;;
18875;SDS011;9570;50.854;13.778;2023-02-16T01:07:13;3.57;;;2.10;;
18875;SDS011;9570;50.854;13.778;2023-02-16T01:10:00;3.33;;;2.30;;
18875;SDS011;9570;50.854;13.778;2023-02-16T01:12:44;3.42;;;2.50;;
18875;SDS011;9570;50.854;13.778;2023-02-16T01:15:12;3.77;;;2.60;;
18875;SDS011;9570;50.854;13.778;2023-02-16T01:17:38;3.75;;;2.45;;
18875;SDS011;9570;50.854;13.778;2023-02-16T01:20:13;2.93;;;2.07;;
18875;SDS011;9570;50.854;13.778;2023-02-16T01:22:40;3.08;;;2.40;;
18875;SDS011;9570;50.854;13.778;2023-02-16T01:25:05;3.23;;;2.17;;
18875;SDS011;9570;50.854;13.778;2023-02-16T01:27:31;2.63;;;2.07;;
18875;SDS011;9570;50.854;13.778;2023-02-16T01:29:57;2.72;;;2.13;;
18875;SDS011;9570;50.854;13.778;2023-02-16T01:32:22;4.40;;;2.60;;
18875;SDS011;9570;50.854;13.778;2023-02-16T01:34:48;3.27;;;2.30;;
18875;SDS011;9570;50.854;13.778;2023-02-16T01:37:14;2.87;;;2.07;;
18875;SDS011;9570;50.854;13.778;2023-02-16T01:39:40;4.13;;;2.42;;
18875;SDS011;9570;50.854;13.778;2023-02-16T01:44:58;2.80;;;2.05;;
18875;SDS011;9570;50.854;13.778;2023-02-16T01:50:26;3.17;;;2.42;;
18875;SDS011;9570;50.854;13.778;2023-02-16T01:53:11;3.22;;;2.15;;
18875;SDS011;9570;50.854;13.778;2023-02-16T01:55:43;2.88;;;2.20;;
18875;SDS011;9570;50.854;13.778;2023-02-16T01:58:19;4.90;;;2.50;;
18875;SDS011;9570;50.854;13.778;2023-02-16T02:03:24;3.90;;;2.50;;
18875;SDS011;9570;50.854;13.778;2023-02-16T02:06:18;3.45;;;2.40;;
18875;SDS011;9570;50.854;13.778;2023-02-16T02:09:05;5.70;;;2.58;;
18875;SDS011;9570;50.854;13.778;2023-02-16T02:11:33;3.03;;;2.50;;
18875;SDS011;9570;50.854;13.778;2023-02-16T02:14:23;3.95;;;2.65;;
18875;SDS011;9570;50.854;13.778;2023-02-16T02:16:59;5.00;;;2.50;;
18875;SDS011;9570;50.854;13.778;2023-02-16T02:19:27;4.30;;;2.33;;
18875;SDS011;9570;50.854;13.778;2023-02-16T02:28:13;3.70;;;2.33;;
18875;SDS011;9570;50.854;13.778;2023-02-16T02:30:59;4.47;;;2.70;;
18875;SDS011;9570;50.854;13.778;2023-02-16T02:33:53;3.10;;;2.33;;
18875;SDS011;9570;50.854;13.778;2023-02-16T02:36:36;4.60;;;2.42;;
18875;SDS011;9570;50.854;13.778;2023-02-16T02:39:20;3.35;;;2.30;;
18875;SDS011;9570;50.854;13.778;2023-02-16T02:44:28;3.75;;;2.40;;
18875;SDS011;9570;50.854;13.778;2023-02-16T02:46:55;4.28;;;2.47;;
18875;SDS011;9570;50.854;13.778;2023-02-16T02:49:21;2.87;;;2.20;;
18875;SDS011;9570;50.854;13.778;2023-02-16T02:51:47;4.17;;;3.10;;
18875;SDS011;9570;50.854;13.778;2023-02-16T02:54:15;3.15;;;2.60;;
18875;SDS011;9570;50.854;13.778;2023-02-16T02:57:15;4.53;;;2.30;;
18875;SDS011;9570;50.854;13.778;2023-02-16T03:00:07;4.10;;;2.60;;
18875;SDS011;9570;50.854;13.778;2023-02-16T03:03:39;3.90;;;2.60;;
18875;SDS011;9570;50.854;13.778;2023-02-16T03:08:31;3.45;;;2.50;;
18875;SDS011;9570;50.854;13.778;2023-02-16T03:11:01;4.03;;;2.60;;
18875;SDS011;9570;50.854;13.778;2023-02-16T03:13:54;3.05;;;2.13;;
18875;SDS011;9570;50.854;13.778;2023-02-16T03:16:30;3.03;;;2.15;;
18875;SDS011;9570;50.854;13.778;2023-02-16T03:19:00;3.03;;;2.40;;
18875;SDS011;9570;50.854;13.778;2023-02-16T03:21:46;2.92;;;2.20;;
18875;SDS011;9570;50.854;13.778;2023-02-16T03:24:31;3.42;;;2.42;;
18875;SDS011;9570;50.854;13.778;2023-02-16T03:27:17;4.35;;;2.50;;
18875;SDS011;9570;50.854;13.778;2023-02-16T03:30:06;4.20;;;2.83;;
18875;SDS011;9570;50.854;13.778;2023-02-16T03:32:33;3.08;;;2.35;;
18875;SDS011;9570;50.854;13.778;2023-02-16T03:34:59;3.53;;;2.50;;
18875;SDS011;9570;50.854;13.778;2023-02-16T03:37:26;3.90;;;2.53;;
18875;SDS011;9570;50.854;13.778;2023-02-16T03:39:51;3.77;;;2.27;;
18875;SDS011;9570;50.854;13.778;2023-02-16T03:42:35;2.97;;;2.42;;
18875;SDS011;9570;50.854;13.778;2023-02-16T03:45:01;3.90;;;2.30;;
18875;SDS011;9570;50.854;13.778;2023-02-16T03:47:26;4.07;;;3.10;;
18875;SDS011;9570;50.854;13.778;2023-02-16T03:49:52;5.10;;;3.00;;
18875;SDS011;9570;50.854;13.778;2023-02-16T03:52:17;3.40;;;2.70;;
18875;SDS011;9570;50.854;13.778;2023-02-16T03:54:43;3.67;;;2.67;;
18875;SDS011;9570;50.854;13.778;2023-02-16T03:57:08;3.83;;;2.53;;
18875;SDS011;9570;50.854;13.778;2023-02-16T03:59:33;3.77;;;2.63;;
18875;SDS011;9570;50.854;13.778;2023-02-16T04:01:59;6.43;;;2.80;;
18875;SDS011;9570;50.854;13.778;2023-02-16T04:04:24;3.20;;;2.50;;
18875;SDS011;9570;50.854;13.778;2023-02-16T04:06:50;3.40;;;2.83;;
18875;SDS011;9570;50.854;13.778;2023-02-16T04:09:15;4.10;;;3.00;;
18875;SDS011;9570;50.854;13.778;2023-02-16T04:11:41;5.03;;;2.77;;
18875;SDS011;9570;50.854;13.778;2023-02-16T04:14:25;4.15;;;2.70;;
18875;SDS011;9570;50.854;13.778;2023-02-16T04:16:50;4.23;;;3.23;;
18875;SDS011;9570;50.854;13.778;2023-02-16T04:19:16;3.77;;;2.67;;
18875;SDS011;9570;50.854;13.778;2023-02-16T04:21:41;3.97;;;2.70;;
18875;SDS011;9570;50.854;13.778;2023-02-16T04:24:07;3.40;;;2.57;;
18875;SDS011;9570;50.854;13.778;2023-02-16T04:26:32;4.43;;;2.80;;
18875;SDS011;9570;50.854;13.778;2023-02-16T04:28:58;3.73;;;2.90;;
18875;SDS011;9570;50.854;13.778;2023-02-16T04:31:23;6.37;;;3.70;;
18875;SDS011;9570;50.854;13.778;2023-02-16T04:33:49;5.53;;;3.53;;
18875;SDS011;9570;50.854;13.778;2023-02-16T04:36:14;5.27;;;2.90;;
18875;SDS011;9570;50.854;13.778;2023-02-16T04:38:40;4.83;;;3.10;;
18875;SDS011;9570;50.854;13.778;2023-02-16T04:41:05;6.27;;;4.00;;
18875;SDS011;9570;50.854;13.778;2023-02-16T04:43:31;5.77;;;3.93;;
18875;SDS011;9570;50.854;13.778;2023-02-16T04:45:57;5.97;;;3.88;;
18875;SDS011;9570;50.854;13.778;2023-02-16T04:48:23;6.17;;;4.33;;
18875;SDS011;9570;50.854;13.778;2023-02-16T04:50:49;6.80;;;4.60;;
18875;SDS011;9570;50.854;13.778;2023-02-16T04:53:14;6.35;;;4.18;;
18875;SDS011;9570;50.854;13.778;2023-02-16T04:55:44;6.67;;;4.60;;
18875;SDS011;9570;50.854;13.778;2023-02-16T04:58:10;6.75;;;4.18;;
18875;SDS011;9570;50.854;13.778;2023-02-16T05:00:36;7.37;;;4.50;;
18875;SDS011;9570;50.854;13.778;2023-02-16T05:03:01;7.13;;;4.33;;
18875;SDS011;9570;50.854;13.778;2023-02-16T05:05:27;7.10;;;4.63;;
18875;SDS011;9570;50.854;13.778;2023-02-16T05:07:52;6.87;;;4.37;;
18875;SDS011;9570;50.854;13.778;2023-02-16T05:10:18;7.00;;;4.57;;
18875;SDS011;9570;50.854;13.778;2023-02-16T05:12:43;4.83;;;4.00;;
18875;SDS011;9570;50.854;13.778;2023-02-16T05:15:27;8.30;;;4.72;;
18875;SDS011;9570;50.854;13.778;2023-02-16T05:17:53;9.03;;;5.10;;
18875;SDS011;9570;50.854;13.778;2023-02-16T05:20:18;7.10;;;4.70;;
18875;SDS011;9570;50.854;13.778;2023-02-16T05:22:44;7.03;;;4.97;;
18875;SDS011;9570;50.854;13.778;2023-02-16T05:25:10;7.67;;;5.07;;
18875;SDS011;9570;50.854;13.778;2023-02-16T05:27:36;7.63;;;5.00;;
18875;SDS011;9570;50.854;13.778;2023-02-16T05:30:01;8.07;;;5.27;;
18875;SDS011;9570;50.854;13.778;2023-02-16T05:32:27;7.80;;;5.00;;
18875;SDS011;9570;50.854;13.778;2023-02-16T05:34:53;8.17;;;5.40;;
18875;SDS011;9570;50.854;13.778;2023-02-16T05:37:18;7.67;;;4.83;;
18875;SDS011;9570;50.854;13.778;2023-02-16T05:39:44;7.47;;;4.90;;
18875;SDS011;9570;50.854;13.778;2023-02-16T05:42:09;9.43;;;4.97;;
18875;SDS011;9570;50.854;13.778;2023-02-16T05:44:35;9.43;;;5.43;;
18875;SDS011;9570;50.854;13.778;2023-02-16T05:47:01;10.65;;;5.72;;
18875;SDS011;9570;50.854;13.778;2023-02-16T05:49:27;10.93;;;6.20;;
18875;SDS011;9570;50.854;13.778;2023-02-16T05:51:52;10.70;;;6.40;;
18875;SDS011;9570;50.854;13.778;2023-02-16T05:54:18;11.40;;;6.20;;
18875;SDS011;9570;50.854;13.778;2023-02-16T05:56:44;10.47;;;6.70;;
18875;SDS011;9570;50.854;13.778;2023-02-16T05:59:10;10.32;;;6.00;;
18875;SDS011;9570;50.854;13.778;2023-02-16T06:01:36;10.52;;;6.15;;
18875;SDS011;9570;50.854;13.778;2023-02-16T06:04:04;11.23;;;6.75;;
18875;SDS011;9570;50.854;13.778;2023-02-16T06:06:34;12.85;;;6.82;;
18875;SDS011;9570;50.854;13.778;2023-02-16T06:09:00;17.88;;;7.65;;
18875;SDS011;9570;50.854;13.778;2023-02-16T06:11:26;13.13;;;8.03;;
18875;SDS011;9570;50.854;13.778;2023-02-16T06:14:05;11.23;;;6.97;;
18875;SDS011;9570;50.854;13.778;2023-02-16T06:16:36;12.05;;;7.03;;
18875;SDS011;9570;50.854;13.778;2023-02-16T06:19:03;13.52;;;7.22;;
18875;SDS011;9570;50.854;13.778;2023-02-16T06:21:29;12.73;;;8.13;;
18875;SDS011;9570;50.854;13.778;2023-02-16T06:23:55;15.83;;;7.60;;
18875;SDS011;9570;50.854;13.778;2023-02-16T06:26:21;17.27;;;8.20;;
18875;SDS011;9570;50.854;13.778;2023-02-16T06:28:47;13.13;;;7.10;;
18875;SDS011;9570;50.854;13.778;2023-02-16T06:31:12;18.63;;;8.37;;
18875;SDS011;9570;50.854;13.778;2023-02-16T06:33:38;14.93;;;8.30;;
18875;SDS011;9570;50.854;13.778;2023-02-16T06:36:04;14.47;;;7.83;;
18875;SDS011;9570;50.854;13.778;2023-02-16T06:38:30;17.73;;;8.45;;
18875;SDS011;9570;50.854;13.778;2023-02-16T06:40:56;15.50;;;7.90;;
18875;SDS011;9570;50.854;13.778;2023-02-16T06:43:21;14.17;;;7.97;;
18875;SDS011;9570;50.854;13.778;2023-02-16T06:45:47;15.10;;;8.73;;
18875;SDS011;9570;50.854;13.778;2023-02-16T06:48:13;20.50;;;8.88;;
18875;SDS011;9570;50.854;13.778;2023-02-16T06:50:38;14.03;;;8.63;;
18875;SDS011;9570;50.854;13.778;2023-02-16T06:53:04;15.67;;;9.63;;
18875;SDS011;9570;50.854;13.778;2023-02-16T06:55:30;18.03;;;8.87;;
18875;SDS011;9570;50.854;13.778;2023-02-16T06:58:00;15.65;;;8.63;;
18875;SDS011;9570;50.854;13.778;2023-02-16T07:00:29;17.50;;;9.57;;
18875;SDS011;9570;50.854;13.778;2023-02-16T07:02:54;17.10;;;9.33;;
18875;SDS011;9570;50.854;13.778;2023-02-16T07:05:20;16.47;;;9.40;;
18875;SDS011;9570;50.854;13.778;2023-02-16T07:07:45;17.30;;;9.30;;
18875;SDS011;9570;50.854;13.778;2023-02-16T07:10:11;15.37;;;8.87;;
18875;SDS011;9570;50.854;13.778;2023-02-16T07:12:36;20.83;;;10.70;;
18875;SDS011;9570;50.854;13.778;2023-02-16T07:15:02;21.70;;;11.47;;
18875;SDS011;9570;50.854;13.778;2023-02-16T07:17:28;19.52;;;10.23;;
18875;SDS011;9570;50.854;13.778;2023-02-16T07:19:53;16.30;;;9.33;;
18875;SDS011;9570;50.854;13.778;2023-02-16T07:22:19;16.77;;;9.50;;
18875;SDS011;9570;50.854;13.778;2023-02-16T07:24:44;15.67;;;9.33;;
18875;SDS011;9570;50.854;13.778;2023-02-16T07:27:10;15.47;;;10.07;;
18875;SDS011;9570;50.854;13.778;2023-02-16T07:29:35;18.97;;;10.83;;
18875;SDS011;9570;50.854;13.778;2023-02-16T07:32:01;18.80;;;10.60;;
18875;SDS011;9570;50.854;13.778;2023-02-16T07:34:27;20.55;;;11.73;;
18875;SDS011;9570;50.854;13.778;2023-02-16T07:36:53;15.97;;;10.40;;
18875;SDS011;9570;50.854;13.778;2023-02-16T07:39:18;19.60;;;11.50;;
18875;SDS011;9570;50.854;13.778;2023-02-16T07:41:44;21.77;;;10.80;;
18875;SDS011;9570;50.854;13.778;2023-02-16T07:44:09;20.37;;;11.33;;
18875;SDS011;9570;50.854;13.778;2023-02-16T07:46:35;21.33;;;11.23;;
18875;SDS011;9570;50.854;13.778;2023-02-16T07:49:00;20.37;;;11.50;;
18875;SDS011;9570;50.854;13.778;2023-02-16T07:51:26;19.30;;;11.13;;
18875;SDS011;9570;50.854;13.778;2023-02-16T07:53:54;19.48;;;11.43;;
18875;SDS011;9570;50.854;13.778;2023-02-16T07:56:28;21.07;;;11.10;;
18875;SDS011;9570;50.854;13.778;2023-02-16T07:58:56;22.33;;;12.20;;
18875;SDS011;9570;50.854;13.778;2023-02-16T08:01:23;19.53;;;11.83;;
18875;SDS011;9570;50.854;13.778;2023-02-16T08:03:49;21.60;;;11.70;;
18875;SDS011;9570;50.854;13.778;2023-02-16T08:06:15;25.00;;;13.73;;
18875;SDS011;9570;50.854;13.778;2023-02-16T08:08:40;20.80;;;11.63;;
18875;SDS011;9570;50.854;13.778;2023-02-16T08:11:10;20.70;;;11.80;;
18875;SDS011;9570;50.854;13.778;2023-02-16T08:13:40;21.30;;;12.13;;
18875;SDS011;9570;50.854;13.778;2023-02-16T08:16:06;19.43;;;11.33;;
18875;SDS011;9570;50.854;13.778;2023-02-16T08:18:37;18.63;;;11.40;;
18875;SDS011;9570;50.854;13.778;2023-02-16T08:21:10;17.73;;;11.63;;
18875;SDS011;9570;50.854;13.778;2023-02-16T08:23:40;19.03;;;11.90;;
18875;SDS011;9570;50.854;13.778;2023-02-16T08:26:14;21.50;;;12.70;;
18875;SDS011;9570;50.854;13.778;2023-02-16T08:28:41;20.40;;;12.77;;
18875;SDS011;9570;50.854;13.778;2023-02-16T08:31:11;21.53;;;13.23;;
18875;SDS011;9570;50.854;13.778;2023-02-16T08:33:37;17.47;;;12.43;;
18875;SDS011;9570;50.854;13.778;2023-02-16T08:36:04;24.80;;;14.73;;
18875;SDS011;9570;50.854;13.778;2023-02-16T08:38:33;26.83;;;17.03;;
18875;SDS011;9570;50.854;13.778;2023-02-16T08:41:01;26.33;;;15.90;;
18875;SDS011;9570;50.854;13.778;2023-02-16T08:43:27;20.97;;;14.27;;
18875;SDS011;9570;50.854;13.778;2023-02-16T08:45:52;23.97;;;14.87;;
18875;SDS011;9570;50.854;13.778;2023-02-16T08:48:18;24.80;;;13.93;;
18875;SDS011;9570;50.854;13.778;2023-02-16T08:50:45;23.57;;;14.37;;
18875;SDS011;9570;50.854;13.778;2023-02-16T08:53:17;23.10;;;13.90;;
18875;SDS011;9570;50.854;13.778;2023-02-16T08:55:54;21.23;;;13.37;;
18875;SDS011;9570;50.854;13.778;2023-02-16T08:58:21;22.00;;;12.93;;
18875;SDS011;9570;50.854;13.778;2023-02-16T09:00:48;22.73;;;13.37;;
18875;SDS011;9570;50.854;13.778;2023-02-16T09:03:14;22.13;;;13.57;;
18875;SDS011;9570;50.854;13.778;2023-02-16T09:05:44;22.33;;;13.20;;
18875;SDS011;9570;50.854;13.778;2023-02-16T09:08:10;22.50;;;13.20;;
18875;SDS011;9570;50.854;13.778;2023-02-16T09:10:35;22.80;;;13.43;;
18875;SDS011;9570;50.854;13.778;2023-02-16T09:13:01;21.70;;;12.97;;
18875;SDS011;9570;50.854;13.778;2023-02-16T09:15:28;22.10;;;13.50;;
18875;SDS011;9570;50.854;13.778;2023-02-16T09:17:54;22.27;;;12.90;;
18875;SDS011;9570;50.854;13.778;2023-02-16T09:20:20;20.77;;;12.80;;
18875;SDS011;9570;50.854;13.778;2023-02-16T09:22:45;21.37;;;12.63;;
18875;SDS011;9570;50.854;13.778;2023-02-16T09:25:11;24.43;;;13.93;;
18875;SDS011;9570;50.854;13.778;2023-02-16T09:27:37;22.50;;;13.63;;
18875;SDS011;9570;50.854;13.778;2023-02-16T09:30:03;21.60;;;13.20;;
18875;SDS011;9570;50.854;13.778;2023-02-16T09:32:29;22.37;;;13.00;;
18875;SDS011;9570;50.854;13.778;2023-02-16T09:34:56;23.03;;;13.20;;
18875;SDS011;9570;50.854;13.778;2023-02-16T09:37:21;20.63;;;13.03;;
18875;SDS011;9570;50.854;13.778;2023-02-16T09:39:47;21.23;;;13.60;;
18875;SDS011;9570;50.854;13.778;2023-02-16T09:44:53;21.10;;;12.90;;
18875;SDS011;9570;50.854;13.778;2023-02-16T09:47:36;19.07;;;11.30;;
18875;SDS011;9570;50.854;13.778;2023-02-16T09:50:22;17.63;;;11.87;;
18875;SDS011;9570;50.854;13.778;2023-02-16T09:52:54;19.20;;;11.27;;
18875;SDS011;9570;50.854;13.778;2023-02-16T09:55:29;16.97;;;10.90;;
18875;SDS011;9570;50.854;13.778;2023-02-16T09:58:04;18.17;;;11.10;;
18875;SDS011;9570;50.854;13.778;2023-02-16T10:00:51;16.53;;;11.03;;
18875;SDS011;9570;50.854;13.778;2023-02-16T10:08:54;16.97;;;10.50;;
18875;SDS011;9570;50.854;13.778;2023-02-16T10:11:25;16.07;;;10.07;;
18875;SDS011;9570;50.854;13.778;2023-02-16T10:14:22;15.47;;;10.10;;
18875;SDS011;9570;50.854;13.778;2023-02-16T10:16:51;19.53;;;10.10;;
18875;SDS011;9570;50.854;13.778;2023-02-16T10:19:25;14.17;;;9.80;;
18875;SDS011;9570;50.854;13.778;2023-02-16T10:21:58;15.10;;;9.80;;
18875;SDS011;9570;50.854;13.778;2023-02-16T10:24:29;14.53;;;9.43;;
18875;SDS011;9570;50.854;13.778;2023-02-16T10:27:06;14.63;;;9.70;;
18875;SDS011;9570;50.854;13.778;2023-02-16T10:29:38;14.13;;;9.33;;
18875;SDS011;9570;50.854;13.778;2023-02-16T10:35:08;15.07;;;8.83;;
18875;SDS011;9570;50.854;13.778;2023-02-16T10:40:19;12.80;;;8.83;;
18875;SDS011;9570;50.854;13.778;2023-02-16T10:48:16;12.17;;;8.10;;
18875;SDS011;9570;50.854;13.778;2023-02-16T10:50:54;11.33;;;8.30;;
18875;SDS011;9570;50.854;13.778;2023-02-16T10:55:56;10.90;;;7.63;;
18875;SDS011;9570;50.854;13.778;2023-02-16T10:58:25;11.13;;;7.40;;
18875;SDS011;9570;50.854;13.778;2023-02-16T11:01:15;13.07;;;8.17;;
18875;SDS011;9570;50.854;13.778;2023-02-16T11:03:45;11.07;;;7.60;;
18875;SDS011;9570;50.854;13.778;2023-02-16T11:06:20;11.50;;;8.13;;
18875;SDS011;9570;50.854;13.778;2023-02-16T11:08:50;12.43;;;8.33;;
18875;SDS011;9570;50.854;13.778;2023-02-16T11:11:20;12.27;;;7.73;;
18875;SDS011;9570;50.854;13.778;2023-02-16T11:13:59;11.60;;;7.50;;
18875;SDS011;9570;50.854;13.778;2023-02-16T11:16:45;12.30;;;7.40;;
18875;SDS011;9570;50.854;13.778;2023-02-16T11:19:18;14.93;;;8.03;;
18875;SDS011;9570;50.854;13.778;2023-02-16T11:21:51;12.73;;;8.03;;
18875;SDS011;9570;50.854;13.778;2023-02-16T11:24:35;9.33;;;7.00;;
18875;SDS011;9570;50.854;13.778;2023-02-16T11:29:31;10.90;;;7.70;;
18875;SDS011;9570;50.854;13.778;2023-02-16T11:31:57;11.70;;;7.33;;
18875;SDS011;9570;50.854;13.778;2023-02-16T11:34:27;8.80;;;7.03;;
18875;SDS011;9570;50.854;13.778;2023-02-16T11:37:03;10.43;;;7.03;;
18875;SDS011;9570;50.854;13.778;2023-02-16T11:39:36;13.13;;;7.93;;
18875;SDS011;9570;50.854;13.778;2023-02-16T11:42:05;13.03;;;8.27;;
18875;SDS011;9570;50.854;13.778;2023-02-16T11:44:35;12.83;;;8.43;;
18875;SDS011;9570;50.854;13.778;2023-02-16T11:47:05;11.93;;;8.10;;
18875;SDS011;9570;50.854;13.778;2023-02-16T11:49:41;10.47;;;7.80;;
18875;SDS011;9570;50.854;13.778;2023-02-16T11:54:51;12.13;;;8.23;;
18875;SDS011;9570;50.854;13.778;2023-02-16T11:57:22;10.67;;;7.40;;
18875;SDS011;9570;50.854;13.778;2023-02-16T11:59:48;12.50;;;7.57;;
18875;SDS011;9570;50.854;13.778;2023-02-16T12:02:20;13.03;;;7.70;;
18875;SDS011;9570;50.854;13.778;2023-02-16T12:05:14;11.97;;;7.53;;
18875;SDS011;9570;50.854;13.778;2023-02-16T12:08:03;10.47;;;7.23;;
18875;SDS011;9570;50.854;13.778;2023-02-16T12:11:07;10.43;;;7.63;;
18875;SDS011;9570;50.854;13.778;2023-02-16T12:13:49;9.77;;;7.00;;
18875;SDS011;9570;50.854;13.778;2023-02-16T12:19:27;10.03;;;5.83;;
18875;SDS011;9570;50.854;13.778;2023-02-16T12:22:18;9.37;;;6.17;;
18875;SDS011;9570;50.854;13.778;2023-02-16T12:30:59;8.77;;;5.97;;
18875;SDS011;9570;50.854;13.778;2023-02-16T12:33:45;10.43;;;6.10;;
18875;SDS011;9570;50.854;13.778;2023-02-16T12:36:52;8.47;;;5.90;;
18875;SDS011;9570;50.854;13.778;2023-02-16T12:39:38;13.20;;;5.80;;
18875;SDS011;9570;50.854;13.778;2023-02-16T12:42:33;8.53;;;5.30;;
18875;SDS011;9570;50.854;13.778;2023-02-16T12:45:18;8.67;;;5.80;;
18875;SDS011;9570;50.854;13.778;2023-02-16T12:47:51;9.97;;;6.43;;
18875;SDS011;9570;50.854;13.778;2023-02-16T12:50:27;8.67;;;6.07;;
18875;SDS011;9570;50.854;13.778;2023-02-16T12:52:56;9.47;;;5.90;;
18875;SDS011;9570;50.854;13.778;2023-02-16T12:55:31;8.30;;;5.80;;
18875;SDS011;9570;50.854;13.778;2023-02-16T12:58:20;10.13;;;6.83;;
18875;SDS011;9570;50.854;13.778;2023-02-16T13:00:53;9.53;;;6.13;;
18875;SDS011;9570;50.854;13.778;2023-02-16T13:03:26;12.07;;;6.90;;
18875;SDS011;9570;50.854;13.778;2023-02-16T13:06:03;12.10;;;7.43;;
18875;SDS011;9570;50.854;13.778;2023-02-16T13:08:59;11.80;;;7.50;;
18875;SDS011;9570;50.854;13.778;2023-02-16T13:14:24;10.47;;;7.13;;
18875;SDS011;9570;50.854;13.778;2023-02-16T13:16:55;10.93;;;7.00;;
18875;SDS011;9570;50.854;13.778;2023-02-16T13:19:30;10.83;;;7.23;;
18875;SDS011;9570;50.854;13.778;2023-02-16T13:22:05;13.50;;;7.07;;
18875;SDS011;9570;50.854;13.778;2023-02-16T13:24:59;10.23;;;7.10;;
18875;SDS011;9570;50.854;13.778;2023-02-16T13:27:55;12.53;;;6.90;;
18875;SDS011;9570;50.854;13.778;2023-02-16T13:33:43;11.40;;;7.10;;
18875;SDS011;9570;50.854;13.778;2023-02-16T13:39:34;15.37;;;7.30;;
18875;SDS011;9570;50.854;13.778;2023-02-16T13:44:59;11.57;;;6.97;;
18875;SDS011;9570;50.854;13.778;2023-02-16T13:47:36;10.00;;;6.97;;
18875;SDS011;9570;50.854;13.778;2023-02-16T13:50:04;11.43;;;7.20;;
18875;SDS011;9570;50.854;13.778;2023-02-16T13:52:33;11.10;;;6.87;;
18875;SDS011;9570;50.854;13.778;2023-02-16T13:55:04;11.03;;;7.27;;
18875;SDS011;9570;50.854;13.778;2023-02-16T14:02:57;11.07;;;7.17;;
18875;SDS011;9570;50.854;13.778;2023-02-16T14:05:29;11.87;;;7.97;;
18875;SDS011;9570;50.854;13.778;2023-02-16T14:14:00;11.17;;;7.43;;
18875;SDS011;9570;50.854;13.778;2023-02-16T14:16:07;12.70;;;8.03;;
18875;SDS011;9570;50.854;13.778;2023-02-16T14:21:33;12.97;;;7.93;;
18875;SDS011;9570;50.854;13.778;2023-02-16T14:24:00;14.67;;;7.83;;
18875;SDS011;9570;50.854;13.778;2023-02-16T14:26:27;11.37;;;7.20;;
18875;SDS011;9570;50.854;13.778;2023-02-16T14:31:30;13.03;;;8.20;;
18875;SDS011;9570;50.854;13.778;2023-02-16T14:34:10;12.77;;;8.40;;
18875;SDS011;9570;50.854;13.778;2023-02-16T14:39:33;11.53;;;7.43;;
18875;SDS011;9570;50.854;13.778;2023-02-16T14:47:44;13.57;;;7.00;;
18875;SDS011;9570;50.854;13.778;2023-02-16T14:59:22;12.67;;;7.83;;
18875;SDS011;9570;50.854;13.778;2023-02-16T15:05:20;12.57;;;7.87;;
18875;SDS011;9570;50.854;13.778;2023-02-16T15:07:48;13.67;;;8.00;;
18875;SDS011;9570;50.854;13.778;2023-02-16T15:10:27;11.80;;;8.13;;
18875;SDS011;9570;50.854;13.778;2023-02-16T15:12:54;11.97;;;8.07;;
18875;SDS011;9570;50.854;13.778;2023-02-16T15:15:21;13.57;;;8.03;;
18875;SDS011;9570;50.854;13.778;2023-02-16T15:17:54;12.53;;;8.13;;
18875;SDS011;9570;50.854;13.778;2023-02-16T15:20:26;12.00;;;8.00;;
18875;SDS011;9570;50.854;13.778;2023-02-16T15:22:58;11.23;;;7.47;;
18875;SDS011;9570;50.854;13.778;2023-02-16T15:25:31;12.23;;;8.00;;
18875;SDS011;9570;50.854;13.778;2023-02-16T15:30:29;12.30;;;7.27;;
18875;SDS011;9570;50.854;13.778;2023-02-16T15:33:00;12.43;;;7.47;;
18875;SDS011;9570;50.854;13.778;2023-02-16T15:35:30;11.63;;;7.40;;
18875;SDS011;9570;50.854;13.778;2023-02-16T15:38:01;12.07;;;7.30;;
18875;SDS011;9570;50.854;13.778;2023-02-16T15:40:30;11.37;;;7.40;;
18875;SDS011;9570;50.854;13.778;2023-02-16T15:43:02;15.80;;;7.97;;
18875;SDS011;9570;50.854;13.778;2023-02-16T15:45:34;13.17;;;7.43;;
18875;SDS011;9570;50.854;13.778;2023-02-16T15:48:11;9.97;;;7.07;;
18875;SDS011;9570;50.854;13.778;2023-02-16T15:50:39;11.47;;;6.67;;
18875;SDS011;9570;50.854;13.778;2023-02-16T15:53:08;11.10;;;6.80;;
18875;SDS011;9570;50.854;13.778;2023-02-16T15:55:40;9.20;;;6.20;;
18875;SDS011;9570;50.854;13.778;2023-02-16T15:58:10;10.00;;;6.90;;
18875;SDS011;9570;50.854;13.778;2023-02-16T16:00:39;9.40;;;6.70;;
18875;SDS011;9570;50.854;13.778;2023-02-16T16:03:07;9.70;;;6.60;;
18875;SDS011;9570;50.854;13.778;2023-02-16T16:05:34;12.90;;;6.87;;
18875;SDS011;9570;50.854;13.778;2023-02-16T16:08:00;10.57;;;7.13;;
18875;SDS011;9570;50.854;13.778;2023-02-16T16:10:31;9.47;;;6.23;;
18875;SDS011;9570;50.854;13.778;2023-02-16T16:13:01;9.20;;;6.33;;
18875;SDS011;9570;50.854;13.778;2023-02-16T16:15:30;9.37;;;6.30;;
18875;SDS011;9570;50.854;13.778;2023-02-16T16:17:59;9.73;;;5.73;;
18875;SDS011;9570;50.854;13.778;2023-02-16T16:20:28;9.43;;;6.23;;
18875;SDS011;9570;50.854;13.778;2023-02-16T16:23:04;8.30;;;5.50;;
18875;SDS011;9570;50.854;13.778;2023-02-16T16:25:38;11.07;;;5.87;;
18875;SDS011;9570;50.854;13.778;2023-02-16T16:28:12;8.27;;;5.87;;
18875;SDS011;9570;50.854;13.778;2023-02-16T16:31:12;13.43;;;5.63;;
18875;SDS011;9570;50.854;13.778;2023-02-16T16:33:53;9.50;;;5.77;;
18875;SDS011;9570;50.854;13.778;2023-02-16T16:36:30;10.23;;;5.70;;
18875;SDS011;9570;50.854;13.778;2023-02-16T16:41:43;7.93;;;5.20;;
18875;SDS011;9570;50.854;13.778;2023-02-16T16:49:47;7.77;;;5.00;;
18875;SDS011;9570;50.854;13.778;2023-02-16T16:54:59;7.37;;;4.70;;
18875;SDS011;9570;50.854;13.778;2023-02-16T16:57:25;7.87;;;4.80;;
18875;SDS011;9570;50.854;13.778;2023-02-16T16:59:50;7.57;;;5.13;;
18875;SDS011;9570;50.854;13.778;2023-02-16T17:02:16;9.03;;;5.03;;
18875;SDS011;9570;50.854;13.778;2023-02-16T17:04:41;10.33;;;5.13;;